Main page
METAR-TAF:

METAR-TAF

Airports :

Doha International Airport

Doha, Qatar

latitude: 25-15-40N, longitude: 051-33-54E, elevation: 11 m

Current weather observation

The report was made 36 minutes ago, at 04:00 UTC
Wind 5 kt from the West, varying between Southwest and Northwest
Temperature 13°C
Humidity 72%
Pressure 1022 hPa
Visibility 10 km or more
no clouds below 1500 m and no cumulonimbus

METAR: OTBD 210400Z 27005KT 220V320 CAVOK 13/08 Q1022 NOSIG

Time: 07:36 (04:36 UTC)

Forecast

The report was made 5 hours and 34 minutes ago, at 23:02 UTC
Forecast valid from 21 at 00 UTC to 22 at 06 UTC
Wind 11 kt from the North/Northwest
Visibility: 8000 m
Becoming
from 21 at 20 UTC to 21 at 22 UTC
Wind 5 kt from the West
Probability 30% :
Temporary
from 22 at 00 UTC to 22 at 04 UTC
Visibility: 5000 m
haze

TAF: OTBD 202302Z 2100/2206 33011KT 8000 NSC BECMG 2120/2122 27005KT PROB30 TEMPO 2200/2204 5000 HZ

Weather observations and forecasts of more than 4000 airports (METAR and TAF reports).

The available stations are represented by yellow and red dots on the map.

Hover mouse over dot to see the name of the station.

Then click to see weather observations and forecasts.

To change the map : click on the green buttons with a black cross to zoom in, on the green button with a dash to zoom out, or on the green arrows for adjacent maps.


METAR-TAF: